Monday, April 27, 2015, 4:57 AM EDT

KPOU, Poughkeepsie Dutchess Cty

Location: Wappingers Falls, NY, United States Lat: 41.633
Local Time: 4:57 AM EDT ( 8:57 GMT) Lon: -73.883
Time Zone: US/Eastern Elev: 167 ft

Show me the last for .
Show Decoded

2015-04-27 03:53 METAR KPOU 270753Z AUTO 00000KT 10SM OVC075 08/01 A2966 RMK AO2 SLP041 T00830011
                 =
2015-04-27 02:53 METAR KPOU 270653Z AUTO 00000KT 10SM OVC080 08/01 A2967 RMK AO2 SLP043 T00830011
                 =
2015-04-27 01:53 METAR KPOU 270553Z AUTO 00000KT 10SM OVC075 10/00 A2967 RMK AO2 SLP045 T01000000
                 10128 20100 55003 =
2015-04-27 00:53 METAR KPOU 270453Z AUTO 34004KT 10SM OVC075 10/M01 A2967 RMK AO2 SLP044
                 T01001006 401671011 =
2015-04-26 23:53 METAR KPOU 270353Z AUTO 32006KT 10SM OVC075 11/M01 A2967 RMK AO2 SLP044
                 T01061011 =
2015-04-26 22:53 METAR KPOU 270253Z AUTO 33003KT 10SM OVC075 11/M01 A2968 RMK AO2 SLP047
                 T01111011 50003 =
2015-04-26 21:53 METAR KPOU 270153Z AUTO 33004KT 10SM OVC075 12/M02 A2968 RMK AO2 SLP048
                 T01171017 =
2015-04-26 20:53 METAR KPOU 270053Z 33006KT 10SM OVC075 12/M02 A2968 RMK AO2 SLP046 T01221017 =
2015-04-26 19:53 METAR KPOU 262353Z 32006KT 10SM OVC075 13/M02 A2967 RMK AO2 SLP045 T01281022
                 10167 20128 53009 =
2015-04-26 18:53 METAR KPOU 262253Z 34007KT 10SM OVC070 14/M02 A2966 RMK AO2 SLP040 T01391017 =
2015-04-26 17:53 METAR KPOU 262153Z 02006KT 10SM OVC080 14/M02 A2965 RMK AO2 SLP039 T01391017 =
2015-04-26 16:53 METAR KPOU 262053Z 35008KT 320V030 10SM OVC080 14/M01 A2964 RMK AO2 SLP036
                 T01441011 55003 =
2015-04-26 15:53 METAR KPOU 261953Z 02009KT 10SM OVC080 15/M01 A2964 RMK AO2 SLP036 T01501011 =
2015-04-26 14:53 METAR KPOU 261853Z 32007KT 10SM OVC080 15/M02 A2965 RMK AO2 SLP038 T01501017 =
2015-04-26 13:53 METAR KPOU 261753Z 34009KT 10SM BKN070 14/M01 A2965 RMK AO2 SLP039 T01441011
                 10156 20050 56016 =
2015-04-26 12:53 METAR KPOU 261653Z 31009G14KT 10SM BKN065 14/M01 A2967 RMK AO2 SLP044 T01441011
                 =
2015-04-26 11:53 METAR KPOU 261553Z COR 360/08KT 10SM BKN065 13/M01 A2968 =
2015-04-26 10:53 METAR KPOU 261453Z 01007KT 10SM BKN070 13/01 A2970 RMK AO2 SLP055 T01330006
                 58007 =
2015-04-26 09:53 METAR KPOU 261353Z 02004KT 10SM BKN070 11/00 A2971 RMK AO2 SLP059 T01110000 =
2015-04-26 08:53 METAR KPOU 261253Z 00000KT 10SM CLR 08/M01 A2972 RMK AO2 SLP062 T00831006 =
2015-04-26 07:53 METAR KPOU 261153Z 00000KT 10SM CLR 04/00 A2972 RMK AO2 SLP063 T00440000 10044
                 21011 50009 =
2015-04-26 06:53 METAR KPOU 261053Z 00000KT 10SM CLR 00/M02 A2973 RMK AO2 SLP064 T00001022 =
2015-04-26 05:53 METAR KPOU 260953Z 00000KT 10SM CLR M01/M03 A2972 RMK AO2 SLP061 T10061028 =

Support USWX by starting your Amazon purchase here.